Archival Weather

Norman Y Mineta San Jose Intl

San Jose, California (KSJC)

Report from: Saturday, September 30, 2023 2:53 PM PDT
Current time: Thursday, July 18, 2024 8:32 PM PDT

Current weather – Weather history – Daily summaries
Weather forecast

Temperature19.4°C (66.9°F)
Dew point11.7°C (53.1°F)
Winds 4 kts (2.1 m/s, 4.6 mph) Vrb
Winds variableWinds variable
Visibility10 mi. (16.1 km)
Clouds Few clouds 1,400 ft. (427 m)
Scattered clouds 2,600 ft. (792 m)
Ceiling: Broken clouds 3,100 ft. (945 m)
Altimeter29.80 in.Hg (1009 mB)
Relative humidity61 %
Density altitude849 ft. (259 m)
Sea-level pressure100.9 kPa (1009 mB, 29.80 in.Hg)
Remarks Automated weather observing station with precipitation discriminator
Flight conditions Visual Meteorological Conditions
Raw dataKSJC 302153Z VRB04KT 10SM FEW014 SCT026 BKN031 19/12 A2980 RMK AO2 SLP091 T01940117
An error has occurred. This application may no longer respond until reloaded. Reload 🗙